METAR / TAF
Helsinki-Vantaa
HELSINKI/VANTAA
Metar
EFHK 281620Z 31005KT CAVOK 03/M11 Q1012 NOSIG

16:20 UTC

Wind: 310° 5kt

Visibility:

Sky:

Temp: 3 deg C / 37.4 deg F

Dewpoint: -11 deg C / 12.2 deg F

Pressure: 1012 hPa

TAF
TAF EFHK 281434Z 2815/2915 32015KT CAVOK BECMG 2819/2821 28005KT
Helsinki, Malmi
HELSINKI/MALMI
Turku
TURKU/ABO
Metar
EFTU 281620Z AUTO 30012KT 9999 SCT042 BKN049 02/M07 Q1015 R08/0/0095

16:20 UTC

Wind: 300° 12kt

Visibility: 9999 m

Sky: SCT 4200 ft

Temp: 2 deg C / 35.6 deg F

Dewpoint: -7 deg C / 19.4 deg F

Pressure: 1015 hPa

TAF
TAF EFTU 281434Z 2815/2915 33013KT CAVOK BECMG 2819/2821 27004KT
Tampere, Pirkkala
TAMPERE/PIRKKALA
Metar
EFTP 281620Z AUTO 31009KT 270V350 CAVOK 01/M12 Q1013

16:20 UTC

Wind: 310° 9kt

Visibility:

Sky:

Temp: 1 deg C / 33.8 deg F

Dewpoint: -12 deg C / 10.4 deg F

Pressure: 1013 hPa

TAF
TAF EFTP 281434Z 2815/2915 31009KT CAVOK PROB30 TEMPO 2900/2906 4000 BR BKN004
Maarianhamina
MARIEHAMN/ALAND
Metar
EFMA 281620Z 34006KT 310V010 CAVOK 03/M06 Q1017

16:20 UTC

Wind: 340° 6kt

Visibility:

Sky:

Temp: 3 deg C / 37.4 deg F

Dewpoint: -6 deg C / 21.2 deg F

Pressure: 1017 hPa

TAF
TAF EFMA 281434Z 2815/2824 34014KT CAVOK BECMG 2818/2820 28004KT
Pori
PORI (MIL/CIV)
Metar
EFPO 281620Z AUTO 28010KT CAVOK 01/M05 Q1015 R12/0/0095

16:20 UTC

Wind: 280° 10kt

Visibility:

Sky:

Temp: 1 deg C / 33.8 deg F

Dewpoint: -5 deg C / 23 deg F

Pressure: 1015 hPa

TAF
TAF EFPO 281127Z 2812/2816 32021KT CAVOK TEMPO 2812/2816 32020G35KT
Vaasa
VAASA
Metar
EFVA 281620Z AUTO 34010KT CAVOK 01/M12 Q1013 R16/0/0095

16:20 UTC

Wind: 340° 10kt

Visibility:

Sky:

Temp: 1 deg C / 33.8 deg F

Dewpoint: -12 deg C / 10.4 deg F

Pressure: 1013 hPa

TAF
TAF EFVA 281426Z 2815/2915 31008KT CAVOK
Kruunupyy
KRUUNUPYY
Metar
EFKK 281620Z 28005KT CAVOK M00/M08 Q1012

16:20 UTC

Wind: 280° 5kt

Visibility:

Sky:

Temp: 0 deg C / 32 deg F

Dewpoint: -8 deg C / 17.6 deg F

Pressure: 1012 hPa

TAF
TAF EFKK 281426Z 2815/2823 31010KT CAVOK
Jyväskylä, Tikkakoski
JYVASKYLA (MIL/C
Metar
EFJY 281620Z AUTO 32008KT CAVOK M01/M12 Q1010

16:20 UTC

Wind: 320° 8kt

Visibility:

Sky:

Temp: -1 deg C / 30.2 deg F

Dewpoint: -12 deg C / 10.4 deg F

Pressure: 1010 hPa

TAF
TAF EFJY 281434Z 2815/2915 31016KT CAVOK TEMPO 2815/2816 32018G28KT BECMG 2817/2819 27004KT
Kuopio
KUOPIO (MIL/CIV)
Metar
EFKU 281620Z AUTO 29017KT CAVOK M02/M09 Q1008

16:20 UTC

Wind: 290° 17kt

Visibility:

Sky:

Temp: -2 deg C / 28.4 deg F

Dewpoint: -9 deg C / 15.8 deg F

Pressure: 1008 hPa

TAF
TAF EFKU 281436Z 2815/2915 30013KT 9999 SCT030 TEMPO 2911/2915 5000 -SN
Joensuu
JOENSUU
Metar
EFJO 281620Z AUTO 29009KT 260V320 9999 -SHSN FEW033 BKN074 M02/M09 Q1007

16:20 UTC

Wind: 290° 9kt

Visibility: 9999 m

Sky: FEW 3300 ft

Temp: -2 deg C / 28.4 deg F

Dewpoint: -9 deg C / 15.8 deg F

Pressure: 1007 hPa

TAF
TAF EFJO 281436Z 2815/2824 31012KT 9999 FEW030 TEMPO 2815/2817 33014G24KT 3000 -SHSN FEW045CB
Halli
HALLI (FIN-AFB)
Metar
EFHA 281620Z AUTO 32010KT CAVOK 00/M11 Q1011

16:20 UTC

Wind: 320° 10kt

Visibility:

Sky:

Temp: 0 deg C / 32 deg F

Dewpoint: -11 deg C / 12.2 deg F

Pressure: 1011 hPa

TAF
TAF EFHA 281127Z 2812/2814 33015KT 9999 BKN030 TEMPO 2812/2814 30015G25KT
Utti
UTTI (FIN-AFB)
Metar
EFUT 281620Z AUTO 33004KT 290V360 CAVOK 00/M10 Q1010

16:20 UTC

Wind: 330° 4kt

Visibility:

Sky:

Temp: 0 deg C / 32 deg F

Dewpoint: -10 deg C / 14 deg F

Pressure: 1010 hPa

TAF
TAF EFUT 280825Z 2809/2813 32012KT 9999 BKN020 TEMPO 2809/2813 33015G25KT 3000 -SHSN FEW040CB
Mikkeli
MIKKELI
Metar
EFMI 281620Z AUTO VRB05KT CAVOK M00/M09 Q1010

16:20 UTC

Wind: ° 5kt

Visibility:

Sky:

Temp: 0 deg C / 32 deg F

Dewpoint: -9 deg C / 15.8 deg F

Pressure: 1010 hPa

Savonlinna
SAVONLINNA (AUT)
Metar
EFSA 281620Z AUTO 29005KT CAVOK M04/M08 Q1008

16:20 UTC

Wind: 290° 5kt

Visibility:

Sky:

Temp: -4 deg C / 24.8 deg F

Dewpoint: -8 deg C / 17.6 deg F

Pressure: 1008 hPa

TAF
TAF EFSA 281436Z 2815/2820 32010KT 9999 FEW024 PROB40 TEMPO 2815/2817 31009G19KT 1500 SHSN BKN010 SCT030CB
Lappeenranta
LAPPEENRANTA
Metar
EFLP 281620Z AUTO 31003KT CAVOK M01/M07 Q1009

16:20 UTC

Wind: 310° 3kt

Visibility:

Sky:

Temp: -1 deg C / 30.2 deg F

Dewpoint: -7 deg C / 19.4 deg F

Pressure: 1009 hPa

Oulu
OULU/ULEABORG
Metar
EFOU 281620Z AUTO 31013KT CAVOK M02/M10 Q1009 R12/19//95

16:20 UTC

Wind: 310° 13kt

Visibility:

Sky:

Temp: -2 deg C / 28.4 deg F

Dewpoint: -10 deg C / 14 deg F

Pressure: 1009 hPa

TAF
TAF EFOU 281426Z 2815/2915 29011KT CAVOK TEMPO 2815/2816 4000 -SHSN FEW050CB
Kemi
KEMI
Metar
EFKE 281620Z AUTO 32008KT 280V010 CAVOK M01/M13 Q1009

16:20 UTC

Wind: 320° 8kt

Visibility:

Sky:

Temp: -1 deg C / 30.2 deg F

Dewpoint: -13 deg C / 8.6 deg F

Pressure: 1009 hPa

TAF
TAF EFKE 281426Z 2815/2821 31008KT CAVOK TEMPO 2815/2817 32014G24KT 4000 -SHSN FEW050CB
Rovaniemi
ROVANIEMI (CIV/M
Metar
EFRO 281620Z AUTO 32008KT CAVOK M03/M12 Q1006

16:20 UTC

Wind: 320° 8kt

Visibility:

Sky:

Temp: -3 deg C / 26.6 deg F

Dewpoint: -12 deg C / 10.4 deg F

Pressure: 1006 hPa

TAF
TAF EFRO 281426Z 2815/2915 32008KT CAVOK TEMPO 2815/2817 30013G25KT 4000 -SHSN FEW050CB PROB40 2912/2915 30008G18KT 4000 -SHSN FEW050CB
Enontekiö
ENONTEKIO
Metar
EFET 281620Z AUTO 27007KT CAVOK M06/M11 Q1006

16:20 UTC

Wind: 270° 7kt

Visibility:

Sky:

Temp: -6 deg C / 21.2 deg F

Dewpoint: -11 deg C / 12.2 deg F

Pressure: 1006 hPa

Ivalo
IVALO
Metar
EFIV 281620Z AUTO 29006KT CAVOK M06/M13 Q1005

16:20 UTC

Wind: 290° 6kt

Visibility:

Sky:

Temp: -6 deg C / 21.2 deg F

Dewpoint: -13 deg C / 8.6 deg F

Pressure: 1005 hPa

TAF
TAF EFIV 281426Z 2815/2818 31009KT 9999 SCT045 TEMPO 2815/2816 32013G23KT
Kittilä
KITTILA
Metar
EFKT 281620Z 32007KT CAVOK M04/M14 Q1007

16:20 UTC

Wind: 320° 7kt

Visibility:

Sky:

Temp: -4 deg C / 24.8 deg F

Dewpoint: -14 deg C / 6.8 deg F

Pressure: 1007 hPa

TAF
TAF EFKT 281426Z 2815/2824 29009KT CAVOK TEMPO 2815/2816 32012G22KT
Kuusamo
KUUSAMO
Metar
EFKS 281620Z AUTO 30008KT 280V340 CAVOK M04/M14 Q1003

16:20 UTC

Wind: 300° 8kt

Visibility:

Sky:

Temp: -4 deg C / 24.8 deg F

Dewpoint: -14 deg C / 6.8 deg F

Pressure: 1003 hPa

TAF
TAF EFKS 281129Z 2812/2814 31012KT 9999 BKN040 TEMPO 2812/2814 31015G25KT 4000 -SHSN FEW040CB
Kajaani
KAJAANI
Metar
EFKI 281620Z AUTO 28008KT CAVOK M04/M08 Q1007

16:20 UTC

Wind: 280° 8kt

Visibility:

Sky:

Temp: -4 deg C / 24.8 deg F

Dewpoint: -8 deg C / 17.6 deg F

Pressure: 1007 hPa

TAF
TAF AMD EFKI 281552Z 2815/2821 27012KT 9999 SCT040 PROB40 TEMPO 2815/2817 30010G22KT 1500 SHSN BKN009 SCT045CB
Varkaus
VARKAUS
Seinäjoki
SEINAJOKI-ILMAJO
Metar
EFSI 281550Z AUTO 30012KT CAVOK 00/M11 Q1012

15:50 UTC

Wind: 300° 12kt

Visibility:

Sky:

Temp: 0 deg C / 32 deg F

Dewpoint: -11 deg C / 12.2 deg F

Pressure: 1012 hPa